createdAt,value
2022-10-19T00:00:09.524Z,31.55
2022-10-19T00:02:56.630Z,32.00
2022-10-19T00:05:43.952Z,28.48
2022-10-19T00:08:31.078Z,32.25
2022-10-19T00:11:19.095Z,31.63
2022-10-19T00:14:07.318Z,33.53
2022-10-19T00:16:55.631Z,32.72
2022-10-19T00:19:42.844Z,37.13
2022-10-19T00:22:30.166Z,26.33
2022-10-19T00:25:17.495Z,30.70
2022-10-19T00:28:05.067Z,28.85
2022-10-19T00:30:52.667Z,25.67
2022-10-19T00:33:41.461Z,25.23
2022-10-19T00:36:38.747Z,28.17
2022-10-19T00:39:25.843Z,30.75
2022-10-19T00:42:13.261Z,24.50
2022-10-19T00:45:03.866Z,30.45
2022-10-19T00:47:51.668Z,29.48
2022-10-19T00:50:39.947Z,28.40
2022-10-19T00:53:30.673Z,20.00
2022-10-19T00:56:18.462Z,30.67
2022-10-19T00:59:06.581Z,26.65
2022-10-19T01:01:54.524Z,25.17
2022-10-19T01:04:47.125Z,27.20
2022-10-19T01:07:34.530Z,27.80
2022-10-19T01:10:31.766Z,21.48
2022-10-19T01:13:44.126Z,19.95
2022-10-19T01:16:37.462Z,19.40
2022-10-19T01:19:51.056Z,20.92
2022-10-19T01:23:03.129Z,20.95
2022-10-19T01:25:59.291Z,21.65
2022-10-19T01:29:28.984Z,23.75
2022-10-19T01:32:19.315Z,24.15
2022-10-19T01:35:08.486Z,21.67
2022-10-19T01:38:16.735Z,22.70
2022-10-19T01:41:25.207Z,25.17
2022-10-19T01:44:18.847Z,23.02
2022-10-19T01:47:10.988Z,23.75
2022-10-19T01:50:10.034Z,23.48
2022-10-19T01:52:58.463Z,24.65
2022-10-19T01:55:50.287Z,24.83
2022-10-19T01:58:39.654Z,24.73
2022-10-19T02:01:29.304Z,23.23
2022-10-19T02:04:19.831Z,23.60
2022-10-19T02:07:08.192Z,24.50
2022-10-19T02:09:56.589Z,23.15
2022-10-19T02:12:44.454Z,23.00
2022-10-19T02:15:36.584Z,22.27
2022-10-19T02:18:35.579Z,23.38
2022-10-19T02:21:22.849Z,23.30
2022-10-19T02:24:09.974Z,21.88
2022-10-19T02:26:57.842Z,20.65
2022-10-19T02:29:45.295Z,21.02
2022-10-19T02:32:33.491Z,22.90
2022-10-19T02:35:20.973Z,22.27
2022-10-19T02:38:11.751Z,23.73
2022-10-19T02:41:02.840Z,21.70
2022-10-19T02:46:45.472Z,16.77
2022-10-19T02:49:35.354Z,18.30
2022-10-19T02:52:22.428Z,17.50
2022-10-19T02:55:09.887Z,17.38
2022-10-19T02:57:57.367Z,20.65
2022-10-19T03:00:44.430Z,17.63
2022-10-19T03:03:31.722Z,18.17
2022-10-19T03:06:18.899Z,16.92
2022-10-19T03:09:06.332Z,23.60
2022-10-19T03:11:56.030Z,23.42
2022-10-19T03:14:43.412Z,21.75
2022-10-19T03:17:30.638Z,20.35
2022-10-19T03:20:17.988Z,18.25
2022-10-19T03:23:05.079Z,20.45
2022-10-19T03:25:52.215Z,20.48
2022-10-19T03:28:39.688Z,17.50
2022-10-19T03:31:27.176Z,19.65
2022-10-19T03:34:14.322Z,16.33
2022-10-19T03:37:02.369Z,15.38
2022-10-19T03:39:49.411Z,14.20
2022-10-19T03:42:36.542Z,17.30
2022-10-19T03:45:23.578Z,16.25
2022-10-19T03:48:10.731Z,15.27
2022-10-19T03:51:03.230Z,16.27
2022-10-19T03:53:54.710Z,14.48
2022-10-19T03:56:42.609Z,15.32
2022-10-19T03:59:29.659Z,14.73
2022-10-19T04:02:16.815Z,16.00
2022-10-19T04:05:04.585Z,15.30
2022-10-19T04:07:51.762Z,14.98
2022-10-19T04:10:38.776Z,17.13
2022-10-19T04:13:25.840Z,12.80
2022-10-19T04:16:13.935Z,17.45
2022-10-19T04:19:01.295Z,16.20
2022-10-19T04:21:49.524Z,16.40
2022-10-19T04:24:36.642Z,17.42
2022-10-19T04:27:23.753Z,17.60
2022-10-19T04:30:11.484Z,18.35
2022-10-19T04:32:58.585Z,15.30
2022-10-19T04:35:45.664Z,20.63
2022-10-19T04:38:33.877Z,16.63
2022-10-19T04:41:22.185Z,17.38
2022-10-19T04:44:09.636Z,18.40
2022-10-19T04:46:56.759Z,16.83
2022-10-19T04:49:43.798Z,18.42
2022-10-19T04:52:31.220Z,16.88
2022-10-19T04:55:18.495Z,15.85
2022-10-19T04:58:05.590Z,19.55
2022-10-19T05:00:52.743Z,18.27
2022-10-19T05:03:40.197Z,21.15
2022-10-19T05:06:29.161Z,19.88
2022-10-19T05:09:17.178Z,21.30
2022-10-19T05:12:04.516Z,18.23
2022-10-19T05:14:51.569Z,25.00
2022-10-19T05:17:38.628Z,20.25
2022-10-19T05:20:25.736Z,20.73
2022-10-19T05:23:12.856Z,22.92
2022-10-19T05:26:06.457Z,20.88
2022-10-19T05:28:56.814Z,21.15
2022-10-19T05:31:44.329Z,18.23
2022-10-19T05:34:31.559Z,18.48
2022-10-19T05:37:18.655Z,22.63
2022-10-19T05:40:06.537Z,33.97
2022-10-19T05:42:53.628Z,20.70
2022-10-19T05:45:40.711Z,18.48
2022-10-19T05:48:32.950Z,20.60
2022-10-19T05:51:21.780Z,27.25
2022-10-19T05:54:10.551Z,18.70
2022-10-19T05:56:57.692Z,23.45
2022-10-19T05:59:44.746Z,17.13
2022-10-19T06:02:31.810Z,13.27
2022-10-19T06:05:18.850Z,20.83
2022-10-19T06:08:05.928Z,18.67
2022-10-19T06:10:53.242Z,19.80
2022-10-19T06:13:41.824Z,18.95
2022-10-19T06:16:30.367Z,17.30
2022-10-19T06:19:17.488Z,13.50
2022-10-19T06:22:04.521Z,23.25
2022-10-19T06:24:51.729Z,17.50
2022-10-19T06:27:38.922Z,21.30
2022-10-19T06:30:26.458Z,15.02
2022-10-19T06:33:13.749Z,16.65
2022-10-19T06:36:12.929Z,17.48
2022-10-19T06:39:01.613Z,17.33
2022-10-19T06:41:48.747Z,15.60
2022-10-19T06:44:38.582Z,13.55
2022-10-19T06:47:31.179Z,18.42
2022-10-19T06:50:18.452Z,15.20
2022-10-19T06:53:05.516Z,17.88
2022-10-19T06:55:52.950Z,14.35
2022-10-19T06:58:40.603Z,16.63
2022-10-19T07:01:27.970Z,17.45
2022-10-19T07:04:15.120Z,18.40
2022-10-19T07:07:02.293Z,18.10
2022-10-19T07:09:49.500Z,10.02
2022-10-19T07:12:36.637Z,8.77
2022-10-19T07:15:23.798Z,8.32
2022-10-19T07:18:10.912Z,8.52
2022-10-19T07:20:59.370Z,8.65
2022-10-19T07:23:47.405Z,8.95
2022-10-19T07:26:34.508Z,10.60
2022-10-19T07:29:21.918Z,9.73
2022-10-19T07:32:09.063Z,10.40
2022-10-19T07:34:56.134Z,10.48
2022-10-19T07:37:43.253Z,12.38
2022-10-19T07:40:30.327Z,12.30
2022-10-19T07:43:17.387Z,12.32
2022-10-19T07:46:10.870Z,13.65
2022-10-19T07:48:58.067Z,13.13
2022-10-19T07:51:46.008Z,14.10
2022-10-19T07:54:33.076Z,12.48
2022-10-19T07:57:22.221Z,12.38
2022-10-19T08:00:10.229Z,14.52
2022-10-19T08:03:36.210Z,14.65
2022-10-19T08:06:09.320Z,15.25
2022-10-19T08:08:56.792Z,15.57
2022-10-19T08:11:43.954Z,14.88
2022-10-19T08:14:31.384Z,15.77
2022-10-19T08:17:18.512Z,14.55
2022-10-19T08:20:07.600Z,14.18
2022-10-19T08:22:57.955Z,14.60
2022-10-19T08:25:46.192Z,13.65
2022-10-19T08:28:33.251Z,14.48
2022-10-19T08:31:22.183Z,13.63
2022-10-19T08:34:09.615Z,13.82
2022-10-19T08:36:56.750Z,14.15
2022-10-19T08:39:43.864Z,13.52
2022-10-19T08:42:53.672Z,14.73
2022-10-19T08:46:00.783Z,13.18
2022-10-19T08:48:47.925Z,11.95
2022-10-19T08:51:38.859Z,11.45
2022-10-19T08:57:48.166Z,9.80
2022-10-19T09:00:56.469Z,10.63
2022-10-19T09:03:55.410Z,9.63
2022-10-19T09:06:49.744Z,9.98
2022-10-19T09:09:43.937Z,9.15
2022-10-19T09:12:47.823Z,8.65
2022-10-19T09:15:41.973Z,7.72
2022-10-19T09:18:32.650Z,8.48
2022-10-19T09:21:50.885Z,6.80
2022-10-19T09:24:48.281Z,7.80
2022-10-19T09:27:40.197Z,7.47
2022-10-19T09:30:29.144Z,6.45
2022-10-19T09:33:24.596Z,6.35
2022-10-19T09:36:22.295Z,6.55
2022-10-19T09:42:36.881Z,5.50
2022-10-19T09:45:35.788Z,5.57
2022-10-19T09:48:39.252Z,5.10
2022-10-19T09:51:26.401Z,4.70
2022-10-19T09:54:25.567Z,3.67
2022-10-19T09:57:24.757Z,3.05
2022-10-19T10:00:20.508Z,3.63
2022-10-19T10:03:08.897Z,3.47
2022-10-19T10:05:59.123Z,2.80
2022-10-19T10:08:50.570Z,3.15
2022-10-19T10:11:39.329Z,2.90
2022-10-19T10:14:33.361Z,3.15
2022-10-19T10:17:30.359Z,3.10
2022-10-19T10:20:30.348Z,2.28
2022-10-19T10:23:25.941Z,2.90
2022-10-19T10:26:19.691Z,2.35
2022-10-19T10:29:40.803Z,2.70
2022-10-19T10:32:29.240Z,2.63
2022-10-19T10:35:21.335Z,3.35
2022-10-19T10:38:19.328Z,2.88
2022-10-19T10:41:13.732Z,2.45
2022-10-19T10:44:04.955Z,2.40
2022-10-19T10:46:57.061Z,2.80
2022-10-19T10:49:52.412Z,2.80
2022-10-19T10:52:40.045Z,3.45
2022-10-19T10:55:27.483Z,3.00
2022-10-19T10:58:50.124Z,2.90
2022-10-19T11:01:41.441Z,2.45
2022-10-19T11:04:37.357Z,2.65
2022-10-19T11:07:27.087Z,2.30
2022-10-19T11:10:23.577Z,2.00
2022-10-19T11:13:23.933Z,2.33
2022-10-19T11:16:24.098Z,2.83
2022-10-19T11:19:18.619Z,2.90
2022-10-19T11:22:18.186Z,2.38
2022-10-19T11:25:06.120Z,2.38
2022-10-19T11:28:01.937Z,2.40
2022-10-19T11:31:13.980Z,2.40
2022-10-19T11:34:07.000Z,1.90
2022-10-19T11:37:03.121Z,1.75
2022-10-19T11:40:10.218Z,1.85
2022-10-19T11:43:04.961Z,2.20
2022-10-19T11:46:17.285Z,2.60
2022-10-19T11:49:42.141Z,2.72
2022-10-19T11:52:52.856Z,2.55
2022-10-19T11:59:14.821Z,1.80
2022-10-19T12:02:29.805Z,2.53
2022-10-19T12:05:25.028Z,2.10
2022-10-19T12:08:31.012Z,1.90
2022-10-19T12:11:56.062Z,2.22
2022-10-19T12:14:46.704Z,2.80
2022-10-19T12:20:32.530Z,2.28
2022-10-19T12:23:35.218Z,1.52
2022-10-19T12:26:23.465Z,2.17
2022-10-19T12:29:24.780Z,2.47
2022-10-19T12:32:16.585Z,2.13
2022-10-19T12:35:22.664Z,2.15
2022-10-19T12:38:22.084Z,2.25
2022-10-19T12:41:36.516Z,1.90
2022-10-19T12:44:48.600Z,1.80
2022-10-19T12:47:36.157Z,2.55
2022-10-19T12:50:49.175Z,1.90
2022-10-19T12:53:40.069Z,1.90
2022-10-19T12:56:27.445Z,1.80
2022-10-19T12:59:26.821Z,1.70
2022-10-19T13:02:28.846Z,1.52
2022-10-19T13:05:22.012Z,1.67
2022-10-19T13:08:12.345Z,1.40
2022-10-19T13:11:14.750Z,1.30
2022-10-19T13:14:20.072Z,1.27
2022-10-19T13:17:08.320Z,2.08
2022-10-19T13:20:15.483Z,1.70
2022-10-19T13:23:05.852Z,1.58
2022-10-19T13:26:31.940Z,1.73
2022-10-19T13:29:48.651Z,1.80
2022-10-19T13:32:44.968Z,1.90
2022-10-19T13:35:34.583Z,1.58
2022-10-19T13:38:26.233Z,1.83
2022-10-19T13:41:27.529Z,2.00
2022-10-19T13:44:19.838Z,1.52
2022-10-19T13:47:14.140Z,2.05
2022-10-19T13:50:17.604Z,1.92
2022-10-19T13:53:18.094Z,2.03
2022-10-19T13:56:32.605Z,2.03
2022-10-19T13:59:47.696Z,2.60
2022-10-19T14:02:47.102Z,2.65
2022-10-19T14:05:56.995Z,3.05
2022-10-19T14:09:09.094Z,2.88
2022-10-19T14:12:07.199Z,2.83
2022-10-19T14:14:54.497Z,2.85
2022-10-19T14:17:42.535Z,2.67
2022-10-19T14:20:37.446Z,3.10
2022-10-19T14:23:30.476Z,3.03
2022-10-19T14:26:21.886Z,2.92
2022-10-19T14:29:12.830Z,2.90
2022-10-19T14:34:48.942Z,2.60
2022-10-19T14:37:36.801Z,2.75
2022-10-19T14:40:27.992Z,3.60
2022-10-19T14:43:34.631Z,2.60
2022-10-19T14:46:32.535Z,2.90
2022-10-19T14:49:19.750Z,2.10
2022-10-19T14:52:08.015Z,2.50
2022-10-19T14:54:56.038Z,2.97
2022-10-19T14:57:45.688Z,3.60
2022-10-19T15:00:33.577Z,2.90
2022-10-19T15:03:27.382Z,3.00
2022-10-19T15:06:33.227Z,2.85
2022-10-19T15:09:37.471Z,3.10
2022-10-19T15:12:41.635Z,2.90
2022-10-19T15:15:32.181Z,4.47
2022-10-19T15:18:44.056Z,4.30
2022-10-19T15:21:30.351Z,4.03
2022-10-19T15:24:27.066Z,4.13
2022-10-19T15:27:20.255Z,4.20
2022-10-19T15:30:22.423Z,3.80
2022-10-19T15:33:14.508Z,3.72
2022-10-19T15:36:17.182Z,3.67
2022-10-19T15:39:18.446Z,3.80
2022-10-19T15:42:40.855Z,4.18
2022-10-19T15:45:38.339Z,4.40
2022-10-19T15:48:28.077Z,4.38
2022-10-19T15:51:27.542Z,5.28
2022-10-19T15:54:17.298Z,5.03
2022-10-19T15:57:04.389Z,5.07
2022-10-19T15:59:51.565Z,5.10
2022-10-19T16:02:39.192Z,5.70
2022-10-19T16:05:26.334Z,5.32
2022-10-19T16:08:13.477Z,5.97
2022-10-19T16:11:00.750Z,6.80
2022-10-19T16:13:47.895Z,6.25
2022-10-19T16:16:35.113Z,8.45
2022-10-19T16:19:22.263Z,7.75
2022-10-19T16:22:09.415Z,8.50
2022-10-19T16:24:56.611Z,8.23
2022-10-19T16:27:44.156Z,7.90
2022-10-19T16:30:31.556Z,8.50
2022-10-19T16:33:18.860Z,9.00
2022-10-19T16:36:07.918Z,9.95
2022-10-19T16:38:55.160Z,7.90
2022-10-19T16:41:44.174Z,13.88
2022-10-19T16:44:33.143Z,15.65
2022-10-19T16:47:20.500Z,15.82
2022-10-19T16:50:08.050Z,16.02
2022-10-19T16:53:10.137Z,16.90
2022-10-19T16:56:05.203Z,20.02
2022-10-19T16:58:59.673Z,17.75
2022-10-19T17:01:47.412Z,17.80
2022-10-19T17:04:34.656Z,18.17
2022-10-19T17:07:21.867Z,20.33
2022-10-19T17:10:09.475Z,18.63
2022-10-19T17:12:56.687Z,18.45
2022-10-19T17:15:43.865Z,19.55
2022-10-19T17:18:31.425Z,18.90
2022-10-19T17:21:21.419Z,18.80
2022-10-19T17:24:16.975Z,20.30
2022-10-19T17:27:07.589Z,19.45
2022-10-19T17:29:54.788Z,19.58
2022-10-19T17:32:42.074Z,21.05
2022-10-19T17:35:29.198Z,20.45
2022-10-19T17:38:16.297Z,21.17
2022-10-19T17:41:06.797Z,20.08
2022-10-19T17:43:54.459Z,19.67
2022-10-19T17:46:41.736Z,20.38
2022-10-19T17:49:29.998Z,18.75
2022-10-19T17:52:17.301Z,20.63
2022-10-19T17:55:12.049Z,19.98
2022-10-19T17:57:59.884Z,20.55
2022-10-19T18:00:47.520Z,21.13
2022-10-19T18:10:17.109Z,22.75
2022-10-19T18:13:04.841Z,21.02
2022-10-19T18:15:52.329Z,21.90
2022-10-19T18:18:32.185Z,21.02
2022-10-19T18:21:21.988Z,19.40
2022-10-19T18:24:16.712Z,21.17
2022-10-19T18:27:03.843Z,20.85
2022-10-19T18:29:51.100Z,20.65
2022-10-19T18:32:38.350Z,19.73
2022-10-19T18:35:25.548Z,21.10
2022-10-19T18:38:12.707Z,21.40
2022-10-19T18:44:33.752Z,20.67
2022-10-19T18:47:21.002Z,20.73
2022-10-19T18:50:08.459Z,20.80
2022-10-19T18:52:55.578Z,20.42
2022-10-19T18:55:42.786Z,19.40
2022-10-19T18:58:33.083Z,21.63
2022-10-19T19:01:26.674Z,19.77
2022-10-19T19:04:13.943Z,20.05
2022-10-19T19:07:01.023Z,20.92
2022-10-19T19:09:50.391Z,20.65
2022-10-19T19:12:37.775Z,22.52
2022-10-19T19:15:25.040Z,20.70
2022-10-19T19:18:12.188Z,19.90
2022-10-19T19:20:59.718Z,21.80
2022-10-19T19:23:48.113Z,21.02
2022-10-19T19:26:39.592Z,23.13
2022-10-19T19:29:27.893Z,21.70
2022-10-19T19:32:15.876Z,22.50
2022-10-19T19:35:02.976Z,20.65
2022-10-19T19:37:50.095Z,21.08
2022-10-19T19:40:45.597Z,20.50
2022-10-19T19:43:34.806Z,21.25
2022-10-19T19:46:22.109Z,20.38
2022-10-19T19:49:09.193Z,20.27
2022-10-19T19:51:56.364Z,20.10
2022-10-19T19:54:43.444Z,20.48
2022-10-19T19:57:30.706Z,20.75
2022-10-19T20:00:17.997Z,20.10
2022-10-19T20:03:05.605Z,20.45
2022-10-19T20:05:52.682Z,19.38
2022-10-19T20:08:39.894Z,20.83
2022-10-19T20:11:29.043Z,19.20
2022-10-19T20:14:16.140Z,19.88
2022-10-19T20:17:03.310Z,21.77
2022-10-19T20:19:50.392Z,19.73
2022-10-19T20:22:38.101Z,20.65
2022-10-19T20:25:25.262Z,19.75
2022-10-19T20:28:12.523Z,21.90
2022-10-19T20:31:07.570Z,20.42
2022-10-19T20:33:55.010Z,21.23
2022-10-19T20:36:42.662Z,20.73
2022-10-19T20:39:29.801Z,20.33
2022-10-19T20:42:18.355Z,20.35
2022-10-19T20:45:06.011Z,19.15
2022-10-19T20:47:53.064Z,18.80
2022-10-19T20:50:40.507Z,20.30
2022-10-19T20:53:27.540Z,19.55
2022-10-19T20:56:16.834Z,17.67
2022-10-19T20:59:07.031Z,19.65
2022-10-19T21:01:57.172Z,19.30
2022-10-19T21:04:44.328Z,19.20
2022-10-19T21:07:31.389Z,19.48
2022-10-19T21:10:18.596Z,21.10
2022-10-19T21:13:05.666Z,20.35
2022-10-19T21:15:52.840Z,20.67
2022-10-19T21:18:40.845Z,20.55
2022-10-19T21:21:31.141Z,20.92
2022-10-19T21:24:27.203Z,21.55
2022-10-19T21:27:14.498Z,21.63
2022-10-19T21:30:01.627Z,21.48
2022-10-19T21:32:48.875Z,22.25
2022-10-19T21:35:36.292Z,24.20
2022-10-19T21:38:23.431Z,23.90
2022-10-19T21:41:18.022Z,27.40
2022-10-19T21:44:05.950Z,24.17
2022-10-19T21:46:53.034Z,23.30
2022-10-19T21:49:40.080Z,24.60
2022-10-19T21:52:27.300Z,23.17
2022-10-19T21:55:14.560Z,23.45
2022-10-19T21:58:02.991Z,22.80
2022-10-19T22:00:50.193Z,23.25
2022-10-19T22:03:37.305Z,24.60
2022-10-19T22:06:26.048Z,25.60
2022-10-19T22:09:17.362Z,24.08
2022-10-19T22:12:04.585Z,24.75
2022-10-19T22:14:51.736Z,24.30
2022-10-19T22:17:38.782Z,24.52
2022-10-19T22:20:25.897Z,25.65
2022-10-19T22:23:12.991Z,25.45
2022-10-19T22:26:00.237Z,25.17
2022-10-19T22:28:47.631Z,26.08
2022-10-19T22:31:35.758Z,26.35
2022-10-19T22:34:22.901Z,25.25
2022-10-19T22:37:10.032Z,25.10
2022-10-19T22:39:57.113Z,26.33
2022-10-19T22:42:44.247Z,24.38
2022-10-19T22:45:31.312Z,23.70
2022-10-19T22:48:19.237Z,25.00
2022-10-19T22:51:06.520Z,24.02
2022-10-19T22:53:53.600Z,24.38
2022-10-19T22:56:41.019Z,22.73
2022-10-19T22:59:28.065Z,22.67
2022-10-19T23:02:15.085Z,24.17
2022-10-19T23:05:02.167Z,23.50
2022-10-19T23:07:49.250Z,24.83
2022-10-19T23:10:36.302Z,22.73
2022-10-19T23:13:23.423Z,22.42
2022-10-19T23:16:10.721Z,21.75
2022-10-19T23:18:57.849Z,21.63
2022-10-19T23:21:45.032Z,22.27
2022-10-19T23:24:32.157Z,21.60
2022-10-19T23:27:20.613Z,23.85
2022-10-19T23:30:08.092Z,22.98
2022-10-19T23:32:55.154Z,22.58
2022-10-19T23:35:42.188Z,23.85
2022-10-19T23:38:29.330Z,24.15
2022-10-19T23:41:17.403Z,22.02
2022-10-19T23:44:05.323Z,25.27
2022-10-19T23:46:52.616Z,23.40
2022-10-19T23:49:39.643Z,23.83
2022-10-19T23:52:26.740Z,22.70
2022-10-19T23:55:13.900Z,23.23
2022-10-19T23:58:00.927Z,22.58
